Jonesboro Municipal Airport Jonesboro US
ICAO: KJBR
IATA: JBR
Category: Medium
Scheduled Services: Yes

Elevation: 262 ft
TransAlt. 18000 ft.

Airport Communications:
ASOS:118.525
MEMPHIS CNTR:120.075
CTAF:123.6
RDO:122.2
UNICOM:123

KJBR Zoom In..

If you have problems with the map follow the link
https://www.worldairports.se/pages/airport.php?
ICAO=KJBR

Runways:

(A) RW 05 length 6200 ft width 150 ft
---- / hdg 50

(B) RW 13 length 4099 ft width 150 ft
---- / hdg 135

(C) RW 23 length 6200 ft width 150 ft
ILS 110.15 / hdg 230

(D) RW 31 length 4099 ft width 150 ft
---- / hdg 315

Location; KJBR
Day. 24 / Time. 10.53 Zulu
* Altimeter: 30.10
* Temperature: 12° c. 53.6°f.
* Wind from: 190° Speed 08 kn.
Dewpoint: 09° c.
Visibility: 10 Statute Miles.
Clouds: Overcast 7000 ft.
Conditions: Light Rain.

KJBR 241053Z AUTO 19008KT 10SM -RA OVC070 12/09 A3010 RMK AO2 RAB48 SLP191 P0000 T01170089 $


Wind From 190°
Speed 08 kn.

 
 
jpsmedia.com for Web Design worldairports.se 2019   terms of use